createdAt,value
2017-05-16T00:00:14.343Z,101573
2017-05-16T00:01:14.349Z,101574
2017-05-16T00:02:14.362Z,101568
2017-05-16T00:03:14.387Z,101573
2017-05-16T00:04:15.199Z,101571
2017-05-16T00:05:14.460Z,101572
2017-05-16T00:06:14.986Z,101571
2017-05-16T00:07:14.493Z,101569
2017-05-16T00:08:15.085Z,101570
2017-05-16T00:09:14.659Z,101568
2017-05-16T00:10:15.531Z,101570
2017-05-16T00:11:14.750Z,101571
2017-05-16T00:12:14.798Z,101567
2017-05-16T00:13:14.851Z,101567
2017-05-16T00:14:15.453Z,101559
2017-05-16T00:15:15.011Z,101565
2017-05-16T00:16:15.272Z,101567
2017-05-16T00:17:15.081Z,101565
2017-05-16T00:18:15.620Z,101569
2017-05-16T00:19:15.705Z,101568
2017-05-16T00:20:15.767Z,101566
2017-05-16T00:21:15.842Z,101563
2017-05-16T00:22:15.567Z,101559
2017-05-16T00:23:15.908Z,101563
2017-05-16T00:24:15.448Z,101568
2017-05-16T00:25:15.450Z,101564
2017-05-16T00:26:16.010Z,101564
2017-05-16T00:27:15.612Z,101561
2017-05-16T00:28:15.962Z,101565
2017-05-16T00:29:16.250Z,101554
2017-05-16T00:30:15.744Z,101563
2017-05-16T00:31:15.883Z,101561
2017-05-16T00:32:15.909Z,101563
2017-05-16T00:33:16.511Z,101561
2017-05-16T00:34:16.934Z,101565
2017-05-16T00:35:16.103Z,101558
2017-05-16T00:36:16.158Z,101558
2017-05-16T00:37:16.272Z,101554
2017-05-16T00:38:16.303Z,101562
2017-05-16T00:39:16.354Z,101560
2017-05-16T00:40:16.611Z,101559
2017-05-16T00:41:16.406Z,101558
2017-05-16T00:42:16.929Z,101558
2017-05-16T00:43:17.034Z,101556
2017-05-16T00:44:16.997Z,101559
2017-05-16T00:45:16.556Z,101558
2017-05-16T00:46:16.884Z,101549
2017-05-16T00:47:17.164Z,101557
2017-05-16T00:48:17.259Z,101549
2017-05-16T00:49:16.826Z,101554
2017-05-16T00:50:17.422Z,101547
2017-05-16T00:51:17.448Z,101554
2017-05-16T00:52:17.251Z,101558
2017-05-16T00:53:17.002Z,101555
2017-05-16T00:54:17.632Z,101556
2017-05-16T00:55:17.748Z,101553
2017-05-16T00:56:17.812Z,101553
2017-05-16T00:57:17.351Z,101549
2017-05-16T00:58:17.642Z,101551
2017-05-16T00:59:17.403Z,101554
2017-05-16T01:00:17.493Z,101553
2017-05-16T01:01:17.513Z,101551
2017-05-16T01:02:17.581Z,101541
2017-05-16T01:03:17.720Z,101550
2017-05-16T01:04:18.567Z,101546
2017-05-16T01:05:18.302Z,101545
2017-05-16T01:06:17.828Z,101544
2017-05-16T01:07:17.872Z,101547
2017-05-16T01:08:18.503Z,101548
2017-05-16T01:09:18.049Z,101544
2017-05-16T01:10:18.909Z,101541
2017-05-16T01:11:18.659Z,101545
2017-05-16T01:12:18.150Z,101545
2017-05-16T01:13:18.194Z,101538
2017-05-16T01:14:18.805Z,101548
2017-05-16T01:15:18.291Z,101543
2017-05-16T01:16:18.545Z,101542
2017-05-16T01:17:18.809Z,101545
2017-05-16T01:18:18.884Z,101542
2017-05-16T01:19:18.938Z,101539
2017-05-16T01:20:18.913Z,101527
2017-05-16T01:21:18.495Z,101530
2017-05-16T01:22:19.287Z,101538
2017-05-16T01:23:18.567Z,101531
2017-05-16T01:24:18.558Z,101531
2017-05-16T01:25:18.654Z,101534
2017-05-16T01:26:19.207Z,101533
2017-05-16T01:27:19.186Z,101521
2017-05-16T01:28:19.029Z,101530
2017-05-16T01:29:18.774Z,101521
2017-05-16T01:30:19.343Z,101530
2017-05-16T01:31:18.832Z,101529
2017-05-16T01:32:19.394Z,101521
2017-05-16T01:33:18.906Z,101523
2017-05-16T01:34:19.262Z,101523
2017-05-16T01:35:19.003Z,101516
2017-05-16T01:36:19.041Z,101518
2017-05-16T01:37:18.997Z,101515
2017-05-16T01:38:19.611Z,101518
2017-05-16T01:39:19.111Z,101516
2017-05-16T01:40:19.963Z,101513
2017-05-16T01:41:19.708Z,101506
2017-05-16T01:42:19.246Z,101512
2017-05-16T01:43:19.266Z,101514
2017-05-16T01:44:19.290Z,101514
2017-05-16T01:45:19.869Z,101518
2017-05-16T01:46:19.652Z,101511
2017-05-16T01:47:19.433Z,101507
2017-05-16T01:48:20.032Z,101503
2017-05-16T01:49:19.600Z,101508
2017-05-16T01:50:19.683Z,101507
2017-05-16T01:51:20.312Z,101500
2017-05-16T01:52:20.085Z,101507
2017-05-16T01:53:19.816Z,101506
2017-05-16T01:54:19.844Z,101509
2017-05-16T01:55:19.895Z,101503
2017-05-16T01:56:20.428Z,101505
2017-05-16T01:57:19.977Z,101499
2017-05-16T01:58:20.284Z,101502
2017-05-16T01:59:19.959Z,101501
2017-05-16T02:00:20.029Z,101506
2017-05-16T02:01:20.102Z,101504
2017-05-16T02:02:20.632Z,101503
2017-05-16T02:03:20.684Z,101502
2017-05-16T02:04:20.476Z,101494
2017-05-16T02:05:20.215Z,101503
2017-05-16T02:06:20.273Z,101500
2017-05-16T02:07:20.358Z,101493
2017-05-16T02:08:20.369Z,101504
2017-05-16T02:09:20.380Z,101500
2017-05-16T02:10:21.212Z,101502
2017-05-16T02:11:20.458Z,101501
2017-05-16T02:12:21.013Z,101494
2017-05-16T02:13:20.573Z,101502
2017-05-16T02:14:20.605Z,101498
2017-05-16T02:15:21.195Z,101498
2017-05-16T02:16:21.483Z,101500
2017-05-16T02:17:20.732Z,101496
2017-05-16T02:18:20.716Z,101502
2017-05-16T02:19:21.349Z,101494
2017-05-16T02:20:21.352Z,101495
2017-05-16T02:21:21.380Z,101493
2017-05-16T02:22:21.789Z,101497
2017-05-16T02:23:21.008Z,101496
2017-05-16T02:24:21.687Z,101494
2017-05-16T02:25:21.140Z,101493
2017-05-16T02:26:21.744Z,101497
2017-05-16T02:27:21.240Z,101499
2017-05-16T02:28:21.606Z,101493
2017-05-16T02:29:21.431Z,101499
2017-05-16T02:30:21.979Z,101493
2017-05-16T02:31:21.511Z,101496
2017-05-16T02:32:22.058Z,101496
2017-05-16T02:33:22.075Z,101498
2017-05-16T02:34:22.344Z,101495
2017-05-16T02:35:22.110Z,101499
2017-05-16T02:36:21.558Z,101498
2017-05-16T02:37:22.123Z,101490
2017-05-16T02:38:21.643Z,101499
2017-05-16T02:39:22.310Z,101496
2017-05-16T02:40:22.607Z,101498
2017-05-16T02:41:21.814Z,101488
2017-05-16T02:42:22.386Z,101497
2017-05-16T02:43:21.968Z,101489
2017-05-16T02:44:22.572Z,101494
2017-05-16T02:45:22.618Z,101490
2017-05-16T02:46:22.981Z,101495
2017-05-16T02:47:22.142Z,101490
2017-05-16T02:48:22.201Z,101499
2017-05-16T02:49:22.718Z,101493
2017-05-16T02:50:22.812Z,101494
2017-05-16T02:51:22.365Z,101496
2017-05-16T02:52:22.725Z,101493
2017-05-16T02:53:23.031Z,101496
2017-05-16T02:54:23.105Z,101496
2017-05-16T02:55:22.641Z,101496
2017-05-16T02:56:22.681Z,101495
2017-05-16T02:57:22.744Z,101495
2017-05-16T02:58:23.650Z,101500
2017-05-16T02:59:22.812Z,101494
2017-05-16T03:00:22.884Z,101498
2017-05-16T03:01:23.524Z,101497
2017-05-16T03:02:23.072Z,101486
2017-05-16T03:03:23.665Z,101497
2017-05-16T03:04:23.395Z,101491
2017-05-16T03:05:23.619Z,101495
2017-05-16T03:06:23.113Z,101497
2017-05-16T03:07:23.720Z,101496
2017-05-16T03:08:23.233Z,101499
2017-05-16T03:09:23.770Z,101495
2017-05-16T03:10:24.096Z,101494
2017-05-16T03:11:23.332Z,101498
2017-05-16T03:12:23.352Z,101501
2017-05-16T03:13:24.576Z,101502
2017-05-16T03:14:23.459Z,101496
2017-05-16T03:15:23.439Z,101498
2017-05-16T03:16:24.305Z,101496
2017-05-16T03:17:23.512Z,101499
2017-05-16T03:18:24.082Z,101500
2017-05-16T03:19:24.176Z,101495
2017-05-16T03:20:23.702Z,101496
2017-05-16T03:21:23.768Z,101498
2017-05-16T03:22:24.605Z,101497
2017-05-16T03:23:23.755Z,101501
2017-05-16T03:24:24.319Z,101499
2017-05-16T03:25:23.919Z,101502
2017-05-16T03:26:24.476Z,101499
2017-05-16T03:27:24.578Z,101499
2017-05-16T03:28:24.369Z,101501
2017-05-16T03:29:24.157Z,101503
2017-05-16T03:30:24.720Z,101498
2017-05-16T03:31:24.829Z,101494
2017-05-16T03:32:24.874Z,101497
2017-05-16T03:33:24.415Z,101495
2017-05-16T03:34:24.809Z,101495
2017-05-16T03:35:24.582Z,101493
2017-05-16T03:36:24.656Z,101497
2017-05-16T03:37:24.671Z,101493
2017-05-16T03:38:24.686Z,101494
2017-05-16T03:39:24.776Z,101497
2017-05-16T03:40:25.103Z,101490
2017-05-16T03:41:25.451Z,101488
2017-05-16T03:42:25.525Z,101493
2017-05-16T03:43:25.534Z,101491
2017-05-16T03:44:25.593Z,101496
2017-05-16T03:45:25.689Z,101491
2017-05-16T03:46:25.486Z,101487
2017-05-16T03:47:25.153Z,101492
2017-05-16T03:48:25.734Z,101490
2017-05-16T03:49:25.802Z,101494
2017-05-16T03:50:25.881Z,101493
2017-05-16T03:51:25.380Z,101494
2017-05-16T03:52:25.692Z,101489
2017-05-16T03:53:26.012Z,101497
2017-05-16T03:54:26.069Z,101496
2017-05-16T03:55:26.067Z,101497
2017-05-16T03:56:26.164Z,101490
2017-05-16T03:57:25.671Z,101498
2017-05-16T03:58:26.609Z,101500
2017-05-16T03:59:26.317Z,101500
2017-05-16T04:00:26.407Z,101499
2017-05-16T04:01:25.911Z,101499
2017-05-16T04:02:26.409Z,101500
2017-05-16T04:03:26.500Z,101500
2017-05-16T04:04:26.846Z,101501
2017-05-16T04:05:26.636Z,101500
2017-05-16T04:06:26.679Z,101501
2017-05-16T04:07:26.729Z,101503
2017-05-16T04:08:26.811Z,101503
2017-05-16T04:09:26.276Z,101501
2017-05-16T04:10:26.604Z,101500
2017-05-16T04:11:26.406Z,101493
2017-05-16T04:12:26.916Z,101502
2017-05-16T04:13:26.454Z,101495
2017-05-16T04:14:27.019Z,101500
2017-05-16T04:15:26.619Z,101500
2017-05-16T04:16:26.923Z,101498
2017-05-16T04:17:26.692Z,101497
2017-05-16T04:18:27.323Z,101496
2017-05-16T04:19:26.906Z,101493
2017-05-16T04:20:27.453Z,101494
2017-05-16T04:21:27.485Z,101493
2017-05-16T04:22:27.932Z,101485
2017-05-16T04:23:27.653Z,101493
2017-05-16T04:24:27.712Z,101484
2017-05-16T04:25:27.719Z,101493
2017-05-16T04:26:27.771Z,101492
2017-05-16T04:27:27.822Z,101491
2017-05-16T04:28:29.017Z,101495
2017-05-16T04:29:27.411Z,101499
2017-05-16T04:30:27.931Z,101497
2017-05-16T04:31:27.478Z,101490
2017-05-16T04:32:28.016Z,101497
2017-05-16T04:33:27.513Z,101498
2017-05-16T04:34:27.885Z,101502
2017-05-16T04:35:28.192Z,101505
2017-05-16T04:36:27.713Z,101504
2017-05-16T04:37:28.280Z,101496
2017-05-16T04:38:27.764Z,101506
2017-05-16T04:39:27.714Z,101503
2017-05-16T04:40:28.086Z,101501
2017-05-16T04:41:27.874Z,101506
2017-05-16T04:42:28.407Z,101505
2017-05-16T04:43:28.473Z,101505
2017-05-16T04:44:28.017Z,101499
2017-05-16T04:45:28.556Z,101495
2017-05-16T04:46:28.459Z,101507
2017-05-16T04:47:28.643Z,101497
2017-05-16T04:48:28.728Z,101500
2017-05-16T04:49:28.328Z,101508
2017-05-16T04:50:28.860Z,101509
2017-05-16T04:51:28.879Z,101509
2017-05-16T04:52:29.261Z,101511
2017-05-16T04:53:28.983Z,101512
2017-05-16T04:54:28.495Z,101510
2017-05-16T04:55:29.135Z,101513
2017-05-16T04:56:29.154Z,101508
2017-05-16T04:57:29.265Z,101511
2017-05-16T04:58:29.161Z,101511
2017-05-16T04:59:29.402Z,101509
2017-05-16T05:00:29.452Z,101514
2017-05-16T05:01:28.938Z,101512
2017-05-16T05:02:29.563Z,101513
2017-05-16T05:03:29.630Z,101516
2017-05-16T05:04:30.010Z,101519
2017-05-16T05:05:29.313Z,101507
2017-05-16T05:06:29.356Z,101516
2017-05-16T05:07:29.437Z,101512
2017-05-16T05:08:29.490Z,101518
2017-05-16T05:09:30.067Z,101514
2017-05-16T05:10:29.857Z,101517
2017-05-16T05:11:30.214Z,101515
2017-05-16T05:12:30.197Z,101513
2017-05-16T05:13:30.306Z,101510
2017-05-16T05:14:30.327Z,101518
2017-05-16T05:15:30.435Z,101518
2017-05-16T05:16:30.866Z,101517
2017-05-16T05:17:31.156Z,101510
2017-05-16T05:18:30.099Z,101515
2017-05-16T05:19:30.089Z,101517
2017-05-16T05:20:30.212Z,101522
2017-05-16T05:21:30.795Z,101508
2017-05-16T05:22:30.536Z,101517
2017-05-16T05:23:31.237Z,101516
2017-05-16T05:24:31.464Z,101518
2017-05-16T05:25:31.749Z,101516
2017-05-16T05:26:30.774Z,101517
2017-05-16T05:27:30.580Z,101512
2017-05-16T05:28:30.846Z,101521
2017-05-16T05:29:31.605Z,101518
2017-05-16T05:30:30.649Z,101520
2017-05-16T05:31:30.792Z,101520
2017-05-16T05:32:30.764Z,101515
2017-05-16T05:33:32.099Z,101519
2017-05-16T05:34:32.480Z,101517
2017-05-16T05:35:31.700Z,101510
2017-05-16T05:36:31.521Z,101521
2017-05-16T05:37:31.461Z,101519
2017-05-16T05:38:32.348Z,101521
2017-05-16T05:39:32.561Z,101520
2017-05-16T05:40:31.364Z,101518
2017-05-16T05:41:31.665Z,101511
2017-05-16T05:42:31.704Z,101518
2017-05-16T05:43:31.855Z,101522
2017-05-16T05:44:32.624Z,101521
2017-05-16T05:45:32.970Z,101520
2017-05-16T05:46:32.459Z,101522
2017-05-16T05:47:32.009Z,101521
2017-05-16T05:48:32.027Z,101526
2017-05-16T05:49:31.502Z,101526
2017-05-16T05:50:33.090Z,101516
2017-05-16T05:51:31.561Z,101528
2017-05-16T05:52:31.883Z,101527
2017-05-16T05:53:32.262Z,101526
2017-05-16T05:54:31.756Z,101530
2017-05-16T05:55:31.717Z,101529
2017-05-16T05:56:32.346Z,101520
2017-05-16T05:57:31.844Z,101532
2017-05-16T05:58:32.699Z,101531
2017-05-16T05:59:31.877Z,101537
2017-05-16T06:00:32.002Z,101528
2017-05-16T06:01:32.526Z,101538
2017-05-16T06:02:32.059Z,101536
2017-05-16T06:03:32.732Z,101537
2017-05-16T06:04:32.979Z,101539
2017-05-16T06:05:32.757Z,101538
2017-05-16T06:06:32.743Z,101538
2017-05-16T06:07:32.294Z,101537
2017-05-16T06:08:32.858Z,101534
2017-05-16T06:09:32.840Z,101537
2017-05-16T06:10:33.182Z,101541
2017-05-16T06:11:32.378Z,101548
2017-05-16T06:12:32.465Z,101535
2017-05-16T06:13:33.099Z,101539
2017-05-16T06:14:32.542Z,101543
2017-05-16T06:15:32.571Z,101544
2017-05-16T06:16:32.952Z,101541
2017-05-16T06:17:33.877Z,101538
2017-05-16T06:18:32.835Z,101541
2017-05-16T06:19:33.403Z,101545
2017-05-16T06:20:32.999Z,101546
2017-05-16T06:21:33.642Z,101546
2017-05-16T06:22:33.328Z,101549
2017-05-16T06:23:34.838Z,101550
2017-05-16T06:24:33.764Z,101550
2017-05-16T06:25:33.199Z,101552
2017-05-16T06:26:33.759Z,101542
2017-05-16T06:27:33.949Z,101543
2017-05-16T06:28:34.254Z,101553
2017-05-16T06:29:33.955Z,101548
2017-05-16T06:30:33.986Z,101550
2017-05-16T06:31:34.606Z,101552
2017-05-16T06:32:34.333Z,101552
2017-05-16T06:33:34.121Z,101555
2017-05-16T06:34:35.236Z,101542
2017-05-16T06:35:34.259Z,101544
2017-05-16T06:36:35.304Z,101542
2017-05-16T06:37:34.334Z,101547
2017-05-16T06:38:35.431Z,101549
2017-05-16T06:39:34.557Z,101552
2017-05-16T06:40:34.920Z,101553
2017-05-16T06:41:34.102Z,101553
2017-05-16T06:42:34.168Z,101555
2017-05-16T06:43:34.210Z,101559
2017-05-16T06:44:34.837Z,101562
2017-05-16T06:45:34.822Z,101565
2017-05-16T06:46:35.253Z,101558
2017-05-16T06:47:34.575Z,101560
2017-05-16T06:48:34.613Z,101569
2017-05-16T06:49:34.635Z,101568
2017-05-16T06:50:35.378Z,101571
2017-05-16T06:51:35.570Z,101575
2017-05-16T06:52:35.643Z,101572
2017-05-16T06:53:35.087Z,101574
2017-05-16T06:54:34.880Z,101573
2017-05-16T06:55:35.525Z,101575
2017-05-16T06:56:35.592Z,101571
2017-05-16T06:57:37.539Z,101568
2017-05-16T06:58:35.473Z,101579
2017-05-16T06:59:36.425Z,101565
2017-05-16T07:00:35.961Z,101571
2017-05-16T07:01:35.785Z,101569
2017-05-16T07:02:35.237Z,101564
2017-05-16T07:03:36.693Z,101561
2017-05-16T07:04:36.796Z,101560
2017-05-16T07:05:35.946Z,101570
2017-05-16T07:06:41.422Z,101570
2017-05-16T07:07:38.031Z,101562
2017-05-16T07:08:37.442Z,101563
2017-05-16T07:09:37.115Z,101562
2017-05-16T07:10:39.609Z,101558
2017-05-16T07:11:37.555Z,101561
2017-05-16T07:12:37.629Z,101565
2017-05-16T07:13:37.870Z,101557
2017-05-16T07:14:37.971Z,101555
2017-05-16T07:15:38.759Z,101557
2017-05-16T07:16:36.416Z,101558
2017-05-16T07:17:36.721Z,101550
2017-05-16T07:18:37.735Z,101558
2017-05-16T07:19:37.655Z,101557
2017-05-16T07:20:38.087Z,101556
2017-05-16T07:21:39.070Z,101553
2017-05-16T07:22:36.586Z,101559
2017-05-16T07:23:37.699Z,101557
2017-05-16T07:24:39.364Z,101555
2017-05-16T07:25:39.880Z,101557
2017-05-16T07:26:39.023Z,101563
2017-05-16T07:27:37.295Z,101560
2017-05-16T07:28:38.996Z,101561
2017-05-16T07:29:37.457Z,101549
2017-05-16T07:30:38.118Z,101559
2017-05-16T07:31:37.409Z,101555
2017-05-16T07:32:38.232Z,101561
2017-05-16T07:33:37.042Z,101558
2017-05-16T07:34:39.187Z,101559
2017-05-16T07:35:39.558Z,101562
2017-05-16T07:36:37.077Z,101556
2017-05-16T07:37:37.759Z,101557
2017-05-16T07:38:37.832Z,101562
2017-05-16T07:39:39.108Z,101562
2017-05-16T07:40:37.479Z,101563
2017-05-16T07:41:38.534Z,101563
2017-05-16T07:42:37.345Z,101560
2017-05-16T07:43:37.335Z,101558
2017-05-16T07:44:37.471Z,101556
2017-05-16T07:45:37.938Z,101556
2017-05-16T07:46:39.514Z,101557
2017-05-16T07:47:38.662Z,101560
2017-05-16T07:48:37.563Z,101552
2017-05-16T07:49:40.136Z,101553
2017-05-16T07:50:37.686Z,101555
2017-05-16T07:51:38.183Z,101550
2017-05-16T07:52:37.948Z,101562
2017-05-16T07:53:38.196Z,101564
2017-05-16T07:54:38.222Z,101558
2017-05-16T07:55:38.300Z,101561
2017-05-16T07:56:38.299Z,101564
2017-05-16T07:57:39.705Z,101568
2017-05-16T07:58:39.960Z,101564
2017-05-16T07:59:38.594Z,101568
2017-05-16T08:00:39.240Z,101561
2017-05-16T08:01:38.111Z,101561
2017-05-16T08:02:38.155Z,101566
2017-05-16T08:03:39.599Z,101567
2017-05-16T08:04:40.741Z,101559
2017-05-16T08:05:39.027Z,101568
2017-05-16T08:06:39.572Z,101566
2017-05-16T08:07:39.621Z,101555
2017-05-16T08:08:39.930Z,101565
2017-05-16T08:09:39.132Z,101568
2017-05-16T08:10:40.725Z,101562
2017-05-16T08:12:39.145Z,101566
2017-05-16T08:13:38.629Z,101546
2017-05-16T08:14:40.038Z,101572
2017-05-16T08:15:39.467Z,101557
2017-05-16T08:16:42.991Z,101562
2017-05-16T08:17:38.951Z,101570
2017-05-16T08:18:39.566Z,101559
2017-05-16T08:19:38.989Z,101560
2017-05-16T08:20:40.843Z,101563
2017-05-16T08:21:40.474Z,101559
2017-05-16T08:22:39.315Z,101558
2017-05-16T08:23:39.012Z,101545
2017-05-16T08:24:40.346Z,101555
2017-05-16T08:25:39.677Z,101551
2017-05-16T08:26:40.457Z,101545
2017-05-16T08:27:39.159Z,101547
2017-05-16T08:28:39.976Z,101544
2017-05-16T08:29:40.572Z,101545
2017-05-16T08:30:39.737Z,101540
2017-05-16T08:31:40.529Z,101540
2017-05-16T08:32:39.330Z,101539
2017-05-16T08:33:39.954Z,101536
2017-05-16T08:34:40.255Z,101540
2017-05-16T08:35:40.021Z,101537
2017-05-16T08:36:40.260Z,101540
2017-05-16T08:37:39.572Z,101538
2017-05-16T08:38:41.141Z,101542
2017-05-16T08:39:39.706Z,101540
2017-05-16T08:40:40.594Z,101543
2017-05-16T08:41:40.481Z,101537
2017-05-16T08:42:39.784Z,101542
2017-05-16T08:43:40.476Z,101546
2017-05-16T08:44:41.200Z,101540
2017-05-16T08:45:40.855Z,101543
2017-05-16T08:46:41.738Z,101539
2017-05-16T08:47:40.697Z,101541
2017-05-16T08:48:40.974Z,101538
2017-05-16T08:49:40.197Z,101532
2017-05-16T08:50:40.800Z,101539
2017-05-16T08:51:40.975Z,101537
2017-05-16T08:52:41.331Z,101540
2017-05-16T08:53:41.107Z,101534
2017-05-16T08:54:41.011Z,101532
2017-05-16T08:55:41.065Z,101540
2017-05-16T08:56:41.099Z,101536
2017-05-16T08:57:41.805Z,101534
2017-05-16T08:58:43.302Z,101523
2017-05-16T08:59:42.068Z,101530
2017-05-16T09:00:42.112Z,101536
2017-05-16T09:01:41.839Z,101539
2017-05-16T09:02:41.621Z,101534
2017-05-16T09:03:40.933Z,101532
2017-05-16T09:04:41.875Z,101531
2017-05-16T09:05:42.937Z,101536
2017-05-16T09:06:41.601Z,101529
2017-05-16T09:07:42.344Z,101541
2017-05-16T09:08:41.263Z,101535
2017-05-16T09:09:41.901Z,101536
2017-05-16T09:10:44.172Z,101534
2017-05-16T09:11:43.611Z,101533
2017-05-16T09:12:41.896Z,101534
2017-05-16T09:13:42.559Z,101542
2017-05-16T09:14:44.304Z,101532
2017-05-16T09:15:42.156Z,101540
2017-05-16T09:16:43.806Z,101538
2017-05-16T09:17:42.819Z,101530
2017-05-16T09:18:42.276Z,101528
2017-05-16T09:19:41.774Z,101534
2017-05-16T09:20:43.089Z,101534
2017-05-16T09:21:42.454Z,101530
2017-05-16T09:22:42.057Z,101521
2017-05-16T09:23:42.404Z,101524
2017-05-16T09:24:44.617Z,101518
2017-05-16T09:25:42.457Z,101519
2017-05-16T09:26:44.561Z,101527
2017-05-16T09:27:42.658Z,101526
2017-05-16T09:28:42.893Z,101529
2017-05-16T09:29:43.967Z,101521
2017-05-16T09:30:43.917Z,101520
2017-05-16T09:31:44.220Z,101526
2017-05-16T09:32:46.163Z,101525
2017-05-16T09:33:43.057Z,101521
2017-05-16T09:34:43.936Z,101526
2017-05-16T09:35:42.960Z,101525
2017-05-16T09:36:43.666Z,101525
2017-05-16T09:37:44.333Z,101526
2017-05-16T09:38:42.525Z,101523
2017-05-16T09:39:44.506Z,101522
2017-05-16T09:40:43.577Z,101518
2017-05-16T09:41:44.585Z,101517
2017-05-16T09:42:43.866Z,101521
2017-05-16T09:43:43.346Z,101513
2017-05-16T09:44:46.094Z,101515
2017-05-16T09:45:44.796Z,101517
2017-05-16T09:46:43.252Z,101519
2017-05-16T09:47:45.490Z,101517
2017-05-16T09:48:44.762Z,101518
2017-05-16T09:49:46.479Z,101512
2017-05-16T09:50:45.095Z,101518
2017-05-16T09:51:45.272Z,101517
2017-05-16T09:52:44.260Z,101517
2017-05-16T09:53:44.653Z,101509
2017-05-16T09:54:44.569Z,101514
2017-05-16T09:55:44.839Z,101514
2017-05-16T09:56:47.905Z,101518
2017-05-16T09:57:46.708Z,101517
2017-05-16T09:58:46.327Z,101512
2017-05-16T09:59:45.637Z,101516
2017-05-16T10:00:46.766Z,101515
2017-05-16T10:01:45.506Z,101512
2017-05-16T10:02:45.189Z,101504
2017-05-16T10:03:44.954Z,101511
2017-05-16T10:04:46.577Z,101504
2017-05-16T10:05:44.728Z,101509
2017-05-16T10:06:44.114Z,101515
2017-05-16T10:07:46.686Z,101515
2017-05-16T10:08:46.155Z,101509
2017-05-16T10:09:45.540Z,101507
2017-05-16T10:10:45.689Z,101500
2017-05-16T10:11:45.536Z,101507
2017-05-16T10:12:50.274Z,101506
2017-05-16T10:13:46.795Z,101503
2017-05-16T10:14:48.072Z,101506
2017-05-16T10:15:45.927Z,101496
2017-05-16T10:16:44.860Z,101504
2017-05-16T10:17:44.602Z,101503
2017-05-16T10:18:45.885Z,101499
2017-05-16T10:19:45.320Z,101502
2017-05-16T10:20:44.698Z,101501
2017-05-16T10:21:46.030Z,101490
2017-05-16T10:22:45.617Z,101500
2017-05-16T10:23:46.791Z,101498
2017-05-16T10:24:47.047Z,101495
2017-05-16T10:25:47.010Z,101497
2017-05-16T10:26:46.417Z,101497
2017-05-16T10:27:45.067Z,101493
2017-05-16T10:28:48.321Z,101492
2017-05-16T10:29:45.094Z,101484
2017-05-16T10:30:46.321Z,101494
2017-05-16T10:31:46.305Z,101492
2017-05-16T10:32:46.929Z,101494
2017-05-16T10:33:45.849Z,101491
2017-05-16T10:34:49.367Z,101489
2017-05-16T10:36:46.061Z,101490
2017-05-16T10:37:46.710Z,101488
2017-05-16T10:38:46.071Z,101487
2017-05-16T10:39:45.602Z,101483
2017-05-16T10:40:46.426Z,101484
2017-05-16T10:41:46.806Z,101487
2017-05-16T10:42:46.865Z,101475
2017-05-16T10:43:47.052Z,101481
2017-05-16T10:44:47.130Z,101479
2017-05-16T10:45:48.613Z,101482
2017-05-16T10:46:47.443Z,101473
2017-05-16T10:47:47.850Z,101481
2017-05-16T10:48:48.233Z,101487
2017-05-16T10:49:46.634Z,101490
2017-05-16T10:50:46.796Z,101489
2017-05-16T10:51:46.074Z,101490
2017-05-16T10:52:46.430Z,101484
2017-05-16T10:53:47.518Z,101478
2017-05-16T10:54:47.196Z,101475
2017-05-16T10:55:48.659Z,101471
2017-05-16T10:56:46.767Z,101474
2017-05-16T10:57:46.252Z,101476
2017-05-16T10:58:47.280Z,101473
2017-05-16T10:59:47.632Z,101471
2017-05-16T11:00:46.436Z,101474
2017-05-16T11:01:46.426Z,101471
2017-05-16T11:02:47.040Z,101469
2017-05-16T11:03:47.121Z,101470
2017-05-16T11:04:46.825Z,101474
2017-05-16T11:05:48.547Z,101476
2017-05-16T11:06:46.675Z,101473
2017-05-16T11:07:47.232Z,101469
2017-05-16T11:08:47.298Z,101466
2017-05-16T11:09:47.355Z,101465
2017-05-16T11:10:48.200Z,101465
2017-05-16T11:11:48.794Z,101463
2017-05-16T11:12:47.743Z,101462
2017-05-16T11:13:50.335Z,101458
2017-05-16T11:14:47.158Z,101456
2017-05-16T11:15:48.348Z,101464
2017-05-16T11:16:47.564Z,101462
2017-05-16T11:17:48.507Z,101456
2017-05-16T11:18:48.505Z,101461
2017-05-16T11:19:48.045Z,101457
2017-05-16T11:20:48.023Z,101456
2017-05-16T11:21:48.785Z,101451
2017-05-16T11:22:47.857Z,101445
2017-05-16T11:23:48.812Z,101446
2017-05-16T11:24:48.640Z,101445
2017-05-16T11:25:48.931Z,101446
2017-05-16T11:26:48.184Z,101446
2017-05-16T11:27:48.268Z,101447
2017-05-16T11:28:50.062Z,101441
2017-05-16T11:29:48.357Z,101447
2017-05-16T11:30:48.420Z,101441
2017-05-16T11:31:48.435Z,101436
2017-05-16T11:32:47.928Z,101431
2017-05-16T11:33:48.506Z,101438
2017-05-16T11:34:49.352Z,101437
2017-05-16T11:35:48.637Z,101437
2017-05-16T11:36:48.679Z,101431
2017-05-16T11:37:48.249Z,101428
2017-05-16T11:38:48.230Z,101435
2017-05-16T11:39:48.339Z,101435
2017-05-16T11:40:51.889Z,101435
2017-05-16T11:41:48.951Z,101433
2017-05-16T11:42:49.045Z,101432
2017-05-16T11:43:49.127Z,101430
2017-05-16T11:44:49.819Z,101428
2017-05-16T11:45:49.129Z,101422
2017-05-16T11:46:48.955Z,101426
2017-05-16T11:47:48.755Z,101415
2017-05-16T11:48:49.368Z,101424
2017-05-16T11:49:48.802Z,101422
2017-05-16T11:50:49.396Z,101417
2017-05-16T11:51:49.460Z,101427
2017-05-16T11:52:49.217Z,101427
2017-05-16T11:53:49.025Z,101423
2017-05-16T11:54:49.060Z,101422
2017-05-16T11:55:49.826Z,101422
2017-05-16T11:56:49.680Z,101419
2017-05-16T11:57:49.744Z,101420
2017-05-16T11:58:49.528Z,101423
2017-05-16T11:59:49.349Z,101414
2017-05-16T12:00:49.883Z,101419
2017-05-16T12:01:49.961Z,101418
2017-05-16T12:02:50.102Z,101408
2017-05-16T12:03:50.127Z,101413
2017-05-16T12:04:50.625Z,101409
2017-05-16T12:05:49.736Z,101411
2017-05-16T12:06:49.733Z,101404
2017-05-16T12:07:50.387Z,101411
2017-05-16T12:08:50.360Z,101410
2017-05-16T12:09:49.852Z,101413
2017-05-16T12:10:50.223Z,101410
2017-05-16T12:11:49.873Z,101407
2017-05-16T12:12:50.428Z,101410
2017-05-16T12:13:50.498Z,101408
2017-05-16T12:14:50.521Z,101403
2017-05-16T12:15:52.564Z,101404
2017-05-16T12:16:50.974Z,101401
2017-05-16T12:17:50.065Z,101393
2017-05-16T12:18:50.783Z,101400
2017-05-16T12:19:50.163Z,101400
2017-05-16T12:20:50.993Z,101398
2017-05-16T12:21:51.658Z,101403
2017-05-16T12:22:51.112Z,101407
2017-05-16T12:23:51.197Z,101406
2017-05-16T12:24:52.452Z,101358
2017-05-16T12:25:53.834Z,101397
2017-05-16T12:26:51.111Z,101393
2017-05-16T12:27:50.583Z,101398
2017-05-16T12:28:50.903Z,101397
2017-05-16T12:29:51.168Z,101397
2017-05-16T12:30:52.692Z,101398